createdAt,value
2023-02-02T00:22:34.349Z,24.25
2023-02-02T00:28:36.693Z,28.00
2023-02-02T00:34:40.338Z,23.50
2023-02-02T00:40:42.787Z,26.00
2023-02-02T00:46:45.142Z,24.75
2023-02-02T00:52:48.843Z,18.75
2023-02-02T00:58:50.934Z,22.50
2023-02-02T01:04:54.750Z,22.50
2023-02-02T01:10:59.967Z,18.75
2023-02-02T01:17:02.131Z,20.00
2023-02-02T01:23:04.420Z,25.00
2023-02-02T01:29:07.136Z,16.75
2023-02-02T01:35:10.778Z,19.00
2023-02-02T01:41:16.831Z,20.00
2023-02-02T01:47:22.833Z,18.50
2023-02-02T01:53:25.172Z,18.25
2023-02-02T01:59:29.681Z,18.50
2023-02-02T02:05:37.435Z,17.50
2023-02-02T02:11:39.648Z,18.25
2023-02-02T02:17:48.685Z,14.50
2023-02-02T02:24:37.594Z,17.00
2023-02-02T02:31:27.032Z,20.00
2023-02-02T02:37:47.224Z,18.75
2023-02-02T02:44:00.683Z,18.00
2023-02-02T02:50:03.455Z,19.00
2023-02-02T02:56:47.600Z,21.25
2023-02-02T03:03:18.115Z,13.75
2023-02-02T03:09:26.695Z,10.00
2023-02-02T03:15:29.885Z,16.00
2023-02-02T03:21:34.452Z,17.50
2023-02-02T03:27:37.729Z,19.00
2023-02-02T03:33:40.071Z,19.50
2023-02-02T03:39:43.694Z,12.75
2023-02-02T03:45:46.798Z,18.00
2023-02-02T03:51:49.768Z,13.25
2023-02-02T03:57:52.227Z,12.75
2023-02-02T04:03:56.422Z,12.50
2023-02-02T04:09:58.499Z,16.50
2023-02-02T04:16:01.510Z,19.00
2023-02-02T04:22:03.683Z,15.25
2023-02-02T04:28:07.280Z,13.00
2023-02-02T04:34:09.624Z,14.00
2023-02-02T04:40:12.468Z,16.75
2023-02-02T04:46:15.362Z,15.25
2023-02-02T04:52:17.541Z,16.75
2023-02-02T04:58:22.054Z,15.50
2023-02-02T05:04:26.128Z,13.50
2023-02-02T05:10:28.357Z,15.00
2023-02-02T05:16:31.400Z,15.50
